sensor_id;sensor_type;location;lat;lon;timestamp;pressure;altitude;pressure_sealevel;temperature;humidity
35435;BME280;21556;55.782;37.528;2023-04-10T00:01:19;100621.06;;;12.46;48.98
35435;BME280;21556;55.782;37.528;2023-04-10T00:03:48;100623.00;;;12.55;46.89
35435;BME280;21556;55.782;37.528;2023-04-10T00:06:14;100625.19;;;12.36;47.74
35435;BME280;21556;55.782;37.528;2023-04-10T00:08:43;100633.31;;;12.09;49.55
35435;BME280;21556;55.782;37.528;2023-04-10T00:11:13;100630.09;;;12.21;50.40
35435;BME280;21556;55.782;37.528;2023-04-10T00:13:47;100636.19;;;12.20;49.10
35435;BME280;21556;55.782;37.528;2023-04-10T00:16:16;100639.31;;;12.05;51.51
35435;BME280;21556;55.782;37.528;2023-04-10T00:18:43;100639.28;;;12.03;52.33
35435;BME280;21556;55.782;37.528;2023-04-10T00:21:18;100637.34;;;11.96;52.01
35435;BME280;21556;55.782;37.528;2023-04-10T00:23:50;100634.31;;;12.14;50.91
35435;BME280;21556;55.782;37.528;2023-04-10T00:26:24;100639.03;;;12.27;49.71
35435;BME280;21556;55.782;37.528;2023-04-10T00:28:51;100646.44;;;12.44;49.21
35435;BME280;21556;55.782;37.528;2023-04-10T00:31:28;100630.59;;;12.06;53.00
35435;BME280;21556;55.782;37.528;2023-04-10T00:33:58;100648.03;;;11.71;54.61
35435;BME280;21556;55.782;37.528;2023-04-10T00:36:24;100655.03;;;11.70;55.49
35435;BME280;21556;55.782;37.528;2023-04-10T00:39:04;100651.00;;;11.83;55.95
35435;BME280;21556;55.782;37.528;2023-04-10T00:41:33;100646.19;;;11.67;57.32
35435;BME280;21556;55.782;37.528;2023-04-10T00:44:00;100650.88;;;11.78;56.92
35435;BME280;21556;55.782;37.528;2023-04-10T00:46:39;100644.34;;;11.96;55.98
35435;BME280;21556;55.782;37.528;2023-04-10T00:49:12;100651.94;;;12.18;54.85
35435;BME280;21556;55.782;37.528;2023-04-10T00:51:43;100639.22;;;12.00;55.77
35435;BME280;21556;55.782;37.528;2023-04-10T00:54:12;100653.47;;;11.77;58.24
35435;BME280;21556;55.782;37.528;2023-04-10T00:56:44;100648.94;;;11.71;59.46
35435;BME280;21556;55.782;37.528;2023-04-10T00:59:15;100647.06;;;11.67;60.35
35435;BME280;21556;55.782;37.528;2023-04-10T01:01:50;100647.56;;;11.54;61.08
35435;BME280;21556;55.782;37.528;2023-04-10T01:04:25;100649.00;;;11.73;60.60
35435;BME280;21556;55.782;37.528;2023-04-10T01:10:01;100642.06;;;11.76;61.64
35435;BME280;21556;55.782;37.528;2023-04-10T01:13:05;100638.31;;;11.67;63.58
35435;BME280;21556;55.782;37.528;2023-04-10T01:15:57;100643.56;;;11.67;64.22
35435;BME280;21556;55.782;37.528;2023-04-10T01:18:57;100646.22;;;11.68;64.29
35435;BME280;21556;55.782;37.528;2023-04-10T01:21:27;100632.97;;;11.65;64.33
35435;BME280;21556;55.782;37.528;2023-04-10T01:30:02;100648.94;;;11.71;68.99
35435;BME280;21556;55.782;37.528;2023-04-10T01:32:35;100643.09;;;11.50;70.41
35435;BME280;21556;55.782;37.528;2023-04-10T01:35:06;100654.84;;;11.63;69.76
35435;BME280;21556;55.782;37.528;2023-04-10T01:37:38;100638.38;;;11.38;70.97
35435;BME280;21556;55.782;37.528;2023-04-10T01:40:14;100643.06;;;11.48;69.97
35435;BME280;21556;55.782;37.528;2023-04-10T01:42:53;100644.63;;;11.42;70.80
35435;BME280;21556;55.782;37.528;2023-04-10T01:45:26;100640.44;;;11.48;68.04
35435;BME280;21556;55.782;37.528;2023-04-10T01:47:54;100638.25;;;11.33;70.26
35435;BME280;21556;55.782;37.528;2023-04-10T01:50:24;100643.25;;;11.24;71.51
35435;BME280;21556;55.782;37.528;2023-04-10T01:53:05;100645.25;;;11.33;73.03
35435;BME280;21556;55.782;37.528;2023-04-10T01:55:33;100648.59;;;11.27;72.42
35435;BME280;21556;55.782;37.528;2023-04-10T01:58:06;100653.06;;;11.31;71.56
35435;BME280;21556;55.782;37.528;2023-04-10T02:00:52;100655.34;;;11.49;73.78
35435;BME280;21556;55.782;37.528;2023-04-10T02:03:18;100646.38;;;11.73;68.76
35435;BME280;21556;55.782;37.528;2023-04-10T02:08:31;100647.81;;;11.31;72.70
35435;BME280;21556;55.782;37.528;2023-04-10T02:11:22;100652.59;;;11.45;72.94
35435;BME280;21556;55.782;37.528;2023-04-10T02:13:52;100655.09;;;11.40;76.38
35435;BME280;21556;55.782;37.528;2023-04-10T02:16:39;100646.72;;;11.23;78.96
35435;BME280;21556;55.782;37.528;2023-04-10T02:19:07;100648.47;;;11.23;83.19
35435;BME280;21556;55.782;37.528;2023-04-10T02:21:43;100640.13;;;11.38;81.37
35435;BME280;21556;55.782;37.528;2023-04-10T02:24:10;100642.75;;;11.38;83.57
35435;BME280;21556;55.782;37.528;2023-04-10T02:26:47;100639.25;;;11.37;87.74
35435;BME280;21556;55.782;37.528;2023-04-10T02:29:16;100646.88;;;11.60;86.82
35435;BME280;21556;55.782;37.528;2023-04-10T02:31:44;100646.09;;;11.02;97.44
35435;BME280;21556;55.782;37.528;2023-04-10T02:34:13;100654.66;;;10.96;100.00
35435;BME280;21556;55.782;37.528;2023-04-10T02:36:42;100650.25;;;11.25;100.00
35435;BME280;21556;55.782;37.528;2023-04-10T02:39:12;100653.88;;;10.99;100.00
35435;BME280;21556;55.782;37.528;2023-04-10T02:41:46;100644.22;;;10.98;100.00
35435;BME280;21556;55.782;37.528;2023-04-10T02:44:13;100648.78;;;11.33;100.00
35435;BME280;21556;55.782;37.528;2023-04-10T02:46:46;100642.94;;;11.44;100.00
35435;BME280;21556;55.782;37.528;2023-04-10T02:49:16;100640.03;;;11.35;100.00
35435;BME280;21556;55.782;37.528;2023-04-10T02:51:43;100651.16;;;11.56;100.00
35435;BME280;21556;55.782;37.528;2023-04-10T02:54:13;100649.00;;;11.74;100.00
35435;BME280;21556;55.782;37.528;2023-04-10T02:56:42;100647.22;;;12.05;84.44
35435;BME280;21556;55.782;37.528;2023-04-10T02:59:09;100654.19;;;12.03;86.94
35435;BME280;21556;55.782;37.528;2023-04-10T03:01:35;100644.66;;;11.75;85.18
35435;BME280;21556;55.782;37.528;2023-04-10T03:04:04;100648.53;;;11.88;88.82
35435;BME280;21556;55.782;37.528;2023-04-10T03:06:35;100647.78;;;11.93;82.46
35435;BME280;21556;55.782;37.528;2023-04-10T03:09:05;100641.94;;;12.03;89.41
35435;BME280;21556;55.782;37.528;2023-04-10T03:11:32;100644.56;;;12.38;92.95
35435;BME280;21556;55.782;37.528;2023-04-10T03:13:59;100654.94;;;12.34;100.00
35435;BME280;21556;55.782;37.528;2023-04-10T03:16:28;100636.84;;;12.11;100.00
35435;BME280;21556;55.782;37.528;2023-04-10T03:18:55;100632.38;;;12.43;100.00
35435;BME280;21556;55.782;37.528;2023-04-10T03:21:21;100635.16;;;12.13;100.00
35435;BME280;21556;55.782;37.528;2023-04-10T03:23:50;100634.59;;;12.26;100.00
35435;BME280;21556;55.782;37.528;2023-04-10T03:26:17;100631.13;;;12.27;100.00
35435;BME280;21556;55.782;37.528;2023-04-10T03:28:43;100626.84;;;11.96;100.00
35435;BME280;21556;55.782;37.528;2023-04-10T03:31:12;100636.78;;;12.08;100.00
35435;BME280;21556;55.782;37.528;2023-04-10T03:33:40;100630.03;;;12.19;100.00
35435;BME280;21556;55.782;37.528;2023-04-10T03:36:06;100636.50;;;11.97;100.00
35435;BME280;21556;55.782;37.528;2023-04-10T03:38:32;100636.66;;;11.70;100.00
35435;BME280;21556;55.782;37.528;2023-04-10T03:40:58;100636.81;;;11.76;100.00
35435;BME280;21556;55.782;37.528;2023-04-10T03:43:29;100634.13;;;11.75;100.00
35435;BME280;21556;55.782;37.528;2023-04-10T03:45:56;100631.78;;;11.84;100.00
35435;BME280;21556;55.782;37.528;2023-04-10T03:48:24;100626.13;;;12.02;100.00
35435;BME280;21556;55.782;37.528;2023-04-10T03:50:56;100626.72;;;12.26;100.00
35435;BME280;21556;55.782;37.528;2023-04-10T03:53:22;100628.44;;;12.24;100.00
35435;BME280;21556;55.782;37.528;2023-04-10T03:55:52;100630.00;;;12.18;100.00
35435;BME280;21556;55.782;37.528;2023-04-10T03:58:20;100625.19;;;12.35;100.00
35435;BME280;21556;55.782;37.528;2023-04-10T04:00:47;100633.59;;;12.21;100.00
35435;BME280;21556;55.782;37.528;2023-04-10T04:03:23;100631.13;;;12.27;100.00
35435;BME280;21556;55.782;37.528;2023-04-10T04:05:58;100623.44;;;12.35;100.00
35435;BME280;21556;55.782;37.528;2023-04-10T04:08:23;100629.78;;;12.45;100.00
35435;BME280;21556;55.782;37.528;2023-04-10T04:11:00;100629.19;;;12.57;100.00
35435;BME280;21556;55.782;37.528;2023-04-10T04:13:36;100619.22;;;12.43;100.00
35435;BME280;21556;55.782;37.528;2023-04-10T04:16:09;100620.09;;;12.44;100.00
35435;BME280;21556;55.782;37.528;2023-04-10T04:19:18;100624.69;;;12.52;100.00
35435;BME280;21556;55.782;37.528;2023-04-10T04:22:07;100622.38;;;12.66;100.00
35435;BME280;21556;55.782;37.528;2023-04-10T04:24:55;100622.22;;;12.59;100.00
35435;BME280;21556;55.782;37.528;2023-04-10T04:27:41;100616.06;;;12.60;100.00
35435;BME280;21556;55.782;37.528;2023-04-10T04:30:22;100620.72;;;12.70;100.00
35435;BME280;21556;55.782;37.528;2023-04-10T04:33:07;100617.34;;;12.77;100.00
35435;BME280;21556;55.782;37.528;2023-04-10T04:36:09;100612.53;;;12.97;100.00
35435;BME280;21556;55.782;37.528;2023-04-10T04:38:53;100623.88;;;12.93;100.00
35435;BME280;21556;55.782;37.528;2023-04-10T04:45:24;100624.38;;;13.17;100.00
35435;BME280;21556;55.782;37.528;2023-04-10T04:48:45;100621.22;;;13.34;95.85
35435;BME280;21556;55.782;37.528;2023-04-10T04:51:29;100630.97;;;12.97;96.54
35435;BME280;21556;55.782;37.528;2023-04-10T04:54:41;100624.44;;;12.80;100.00
35435;BME280;21556;55.782;37.528;2023-04-10T04:57:21;100625.06;;;12.68;100.00
35435;BME280;21556;55.782;37.528;2023-04-10T05:00:14;100637.28;;;13.05;96.59
35435;BME280;21556;55.782;37.528;2023-04-10T05:03:05;100630.50;;;13.18;94.95
35435;BME280;21556;55.782;37.528;2023-04-10T05:06:13;100638.00;;;12.96;100.00
35435;BME280;21556;55.782;37.528;2023-04-10T05:08:57;100629.81;;;13.23;90.61
35435;BME280;21556;55.782;37.528;2023-04-10T05:11:52;100633.22;;;13.21;95.51
35435;BME280;21556;55.782;37.528;2023-04-10T05:14:41;100633.22;;;13.62;84.44
35435;BME280;21556;55.782;37.528;2023-04-10T05:17:27;100632.13;;;13.99;79.07
35435;BME280;21556;55.782;37.528;2023-04-10T05:20:34;100631.63;;;14.21;73.97
35435;BME280;21556;55.782;37.528;2023-04-10T05:23:33;100634.31;;;14.25;68.22
35435;BME280;21556;55.782;37.528;2023-04-10T05:26:13;100630.09;;;14.36;65.89
35435;BME280;21556;55.782;37.528;2023-04-10T05:29:09;100627.78;;;14.54;65.89
35435;BME280;21556;55.782;37.528;2023-04-10T05:31:55;100632.19;;;14.55;61.75
35435;BME280;21556;55.782;37.528;2023-04-10T05:34:50;100631.47;;;14.65;61.17
35435;BME280;21556;55.782;37.528;2023-04-10T05:37:33;100637.63;;;14.64;61.04
35435;BME280;21556;55.782;37.528;2023-04-10T05:40:31;100642.25;;;14.81;59.94
35435;BME280;21556;55.782;37.528;2023-04-10T05:43:35;100638.19;;;15.06;57.16
35435;BME280;21556;55.782;37.528;2023-04-10T05:46:26;100638.28;;;15.12;55.19
35435;BME280;21556;55.782;37.528;2023-04-10T05:49:12;100634.03;;;15.26;54.58
35435;BME280;21556;55.782;37.528;2023-04-10T05:52:10;100644.06;;;14.85;57.34
35435;BME280;21556;55.782;37.528;2023-04-10T05:55:03;100639.94;;;15.07;56.11
35435;BME280;21556;55.782;37.528;2023-04-10T05:57:48;100639.50;;;15.40;55.60
35435;BME280;21556;55.782;37.528;2023-04-10T06:00:36;100641.00;;;15.20;55.00
35435;BME280;21556;55.782;37.528;2023-04-10T06:03:46;100639.06;;;15.03;53.99
35435;BME280;21556;55.782;37.528;2023-04-10T06:06:14;100636.84;;;14.72;56.85
35435;BME280;21556;55.782;37.528;2023-04-10T06:08:43;100645.53;;;14.66;58.81
35435;BME280;21556;55.782;37.528;2023-04-10T06:11:09;100646.41;;;14.63;63.17
35435;BME280;21556;55.782;37.528;2023-04-10T06:13:36;100644.97;;;14.88;62.37
35435;BME280;21556;55.782;37.528;2023-04-10T06:16:02;100647.34;;;14.68;64.41
35435;BME280;21556;55.782;37.528;2023-04-10T06:18:30;100647.59;;;14.85;61.76
35435;BME280;21556;55.782;37.528;2023-04-10T06:21:05;100649.72;;;14.52;66.64
35435;BME280;21556;55.782;37.528;2023-04-10T06:23:33;100650.66;;;14.55;68.85
35435;BME280;21556;55.782;37.528;2023-04-10T06:26:00;100651.81;;;14.73;65.28
35435;BME280;21556;55.782;37.528;2023-04-10T06:28:28;100647.78;;;14.99;63.03
35435;BME280;21556;55.782;37.528;2023-04-10T06:30:59;100651.53;;;14.53;62.71
35435;BME280;21556;55.782;37.528;2023-04-10T06:33:30;100645.84;;;15.54;55.19
35435;BME280;21556;55.782;37.528;2023-04-10T06:35:57;100648.91;;;15.91;51.36
35435;BME280;21556;55.782;37.528;2023-04-10T06:38:32;100648.31;;;16.20;47.49
35435;BME280;21556;55.782;37.528;2023-04-10T06:41:04;100641.94;;;15.99;47.56
35435;BME280;21556;55.782;37.528;2023-04-10T06:43:33;100650.50;;;15.75;47.75
35435;BME280;21556;55.782;37.528;2023-04-10T06:46:15;100656.72;;;15.79;48.94
35435;BME280;21556;55.782;37.528;2023-04-10T06:48:57;100648.69;;;15.01;55.51
35435;BME280;21556;55.782;37.528;2023-04-10T06:51:23;100660.00;;;15.59;54.45
35435;BME280;21556;55.782;37.528;2023-04-10T06:53:49;100641.03;;;17.21;48.36
35435;BME280;21556;55.782;37.528;2023-04-10T06:56:15;100643.72;;;17.31;46.84
35435;BME280;21556;55.782;37.528;2023-04-10T06:58:41;100645.53;;;17.32;45.17
35435;BME280;21556;55.782;37.528;2023-04-10T07:01:07;100649.78;;;17.00;45.23
35435;BME280;21556;55.782;37.528;2023-04-10T07:03:33;100658.84;;;16.18;49.21
35435;BME280;21556;55.782;37.528;2023-04-10T07:05:59;100657.00;;;16.06;51.45
35435;BME280;21556;55.782;37.528;2023-04-10T07:08:26;100666.09;;;15.52;54.01
35435;BME280;21556;55.782;37.528;2023-04-10T07:10:52;100666.44;;;15.83;51.55
35435;BME280;21556;55.782;37.528;2023-04-10T07:13:18;100666.44;;;15.81;49.93
35435;BME280;21556;55.782;37.528;2023-04-10T07:15:44;100665.03;;;15.36;51.75
35435;BME280;21556;55.782;37.528;2023-04-10T07:18:10;100662.34;;;15.33;52.33
35435;BME280;21556;55.782;37.528;2023-04-10T07:20:36;100668.97;;;15.69;51.13
35435;BME280;21556;55.782;37.528;2023-04-10T07:23:03;100655.16;;;15.99;48.65
35435;BME280;21556;55.782;37.528;2023-04-10T07:25:29;100661.69;;;16.40;46.62
35435;BME280;21556;55.782;37.528;2023-04-10T07:27:56;100667.84;;;16.34;46.41
35435;BME280;21556;55.782;37.528;2023-04-10T07:30:22;100662.56;;;16.40;45.88
35435;BME280;21556;55.782;37.528;2023-04-10T07:32:48;100658.25;;;16.51;46.12
35435;BME280;21556;55.782;37.528;2023-04-10T07:35:16;100643.09;;;18.38;40.69
35435;BME280;21556;55.782;37.528;2023-04-10T07:37:43;100644.84;;;18.71;39.93
35435;BME280;21556;55.782;37.528;2023-04-10T07:40:09;100637.72;;;18.92;37.67
35435;BME280;21556;55.782;37.528;2023-04-10T07:42:36;100630.66;;;20.40;35.14
35435;BME280;21556;55.782;37.528;2023-04-10T07:45:02;100630.16;;;20.97;33.78
35435;BME280;21556;55.782;37.528;2023-04-10T07:47:33;100630.91;;;20.14;35.05
35435;BME280;21556;55.782;37.528;2023-04-10T07:49:59;100634.03;;;19.33;35.34
35435;BME280;21556;55.782;37.528;2023-04-10T07:52:25;100645.72;;;18.75;36.34
35435;BME280;21556;55.782;37.528;2023-04-10T07:54:51;100647.53;;;18.19;36.73
35435;BME280;21556;55.782;37.528;2023-04-10T07:57:18;100647.47;;;17.84;37.46
35435;BME280;21556;55.782;37.528;2023-04-10T07:59:46;100643.06;;;18.03;36.78
35435;BME280;21556;55.782;37.528;2023-04-10T08:02:12;100639.53;;;18.64;35.61
35435;BME280;21556;55.782;37.528;2023-04-10T08:04:38;100640.41;;;18.15;36.18
35435;BME280;21556;55.782;37.528;2023-04-10T08:07:07;100640.31;;;17.71;37.53
35435;BME280;21556;55.782;37.528;2023-04-10T08:09:32;100637.44;;;17.09;38.35
35435;BME280;21556;55.782;37.528;2023-04-10T08:11:59;100640.88;;;16.90;38.77
35435;BME280;21556;55.782;37.528;2023-04-10T08:14:25;100638.63;;;17.85;37.71
35435;BME280;21556;55.782;37.528;2023-04-10T08:16:51;100630.63;;;17.79;36.74
35435;BME280;21556;55.782;37.528;2023-04-10T08:19:17;100627.13;;;18.08;37.03
35435;BME280;21556;55.782;37.528;2023-04-10T08:21:43;100643.94;;;17.96;36.91
35435;BME280;21556;55.782;37.528;2023-04-10T08:24:09;100634.13;;;17.73;37.85
35435;BME280;21556;55.782;37.528;2023-04-10T08:26:36;100628.91;;;18.02;36.93
35435;BME280;21556;55.782;37.528;2023-04-10T08:29:02;100627.78;;;17.18;38.63
35435;BME280;21556;55.782;37.528;2023-04-10T08:31:29;100641.50;;;16.55;39.53
35435;BME280;21556;55.782;37.528;2023-04-10T08:33:56;100638.28;;;16.98;39.27
35435;BME280;21556;55.782;37.528;2023-04-10T08:36:23;100633.78;;;16.83;39.47
35435;BME280;21556;55.782;37.528;2023-04-10T08:38:51;100638.03;;;16.59;40.06
35435;BME280;21556;55.782;37.528;2023-04-10T08:41:18;100637.72;;;16.21;40.46
35435;BME280;21556;55.782;37.528;2023-04-10T08:43:46;100652.81;;;16.31;41.12
35435;BME280;21556;55.782;37.528;2023-04-10T08:46:22;100647.03;;;15.81;41.10
35435;BME280;21556;55.782;37.528;2023-04-10T08:49:03;100633.81;;;15.81;41.69
35435;BME280;21556;55.782;37.528;2023-04-10T08:51:42;100632.88;;;15.77;42.60
35435;BME280;21556;55.782;37.528;2023-04-10T08:54:20;100632.16;;;15.94;42.77
35435;BME280;21556;55.782;37.528;2023-04-10T08:56:53;100626.75;;;15.83;43.68
35435;BME280;21556;55.782;37.528;2023-04-10T08:59:24;100631.16;;;15.82;43.30
35435;BME280;21556;55.782;37.528;2023-04-10T09:01:52;100634.59;;;15.71;43.84
35435;BME280;21556;55.782;37.528;2023-04-10T09:04:19;100633.09;;;16.00;43.05
35435;BME280;21556;55.782;37.528;2023-04-10T09:06:45;100632.25;;;16.04;42.09
35435;BME280;21556;55.782;37.528;2023-04-10T09:09:11;100641.81;;;15.87;43.43
35435;BME280;21556;55.782;37.528;2023-04-10T09:14:27;100617.59;;;16.48;41.18
35435;BME280;21556;55.782;37.528;2023-04-10T09:19:45;100625.34;;;16.22;44.21
35435;BME280;21556;55.782;37.528;2023-04-10T09:22:30;100619.91;;;16.03;44.56
35435;BME280;21556;55.782;37.528;2023-04-10T09:24:58;100630.13;;;15.68;45.72
35435;BME280;21556;55.782;37.528;2023-04-10T09:27:28;100628.47;;;15.79;45.77
35435;BME280;21556;55.782;37.528;2023-04-10T09:29:56;100625.13;;;15.97;44.83
35435;BME280;21556;55.782;37.528;2023-04-10T09:32:43;100619.66;;;15.79;43.76
35435;BME280;21556;55.782;37.528;2023-04-10T09:35:13;100617.06;;;15.80;45.01
35435;BME280;21556;55.782;37.528;2023-04-10T09:37:42;100609.84;;;16.74;42.92
35435;BME280;21556;55.782;37.528;2023-04-10T09:40:22;100617.66;;;16.54;41.88
35435;BME280;21556;55.782;37.528;2023-04-10T09:42:50;100616.88;;;16.72;41.66
35435;BME280;21556;55.782;37.528;2023-04-10T09:45:51;100616.88;;;16.73;40.89
35435;BME280;21556;55.782;37.528;2023-04-10T09:48:24;100611.38;;;16.40;42.53
35435;BME280;21556;55.782;37.528;2023-04-10T09:50:52;100617.53;;;16.37;42.29
35435;BME280;21556;55.782;37.528;2023-04-10T09:53:20;100619.63;;;16.84;41.37
35435;BME280;21556;55.782;37.528;2023-04-10T09:55:49;100611.09;;;17.51;39.06
35435;BME280;21556;55.782;37.528;2023-04-10T09:58:20;100609.22;;;17.18;38.90
35435;BME280;21556;55.782;37.528;2023-04-10T10:00:48;100613.44;;;16.83;40.17
35435;BME280;21556;55.782;37.528;2023-04-10T10:03:21;100610.53;;;16.48;40.78
35435;BME280;21556;55.782;37.528;2023-04-10T10:05:51;100608.78;;;16.47;41.59
35435;BME280;21556;55.782;37.528;2023-04-10T10:08:20;100607.13;;;16.60;41.89
35435;BME280;21556;55.782;37.528;2023-04-10T10:10:53;100600.41;;;17.22;41.00
35435;BME280;21556;55.782;37.528;2023-04-10T10:13:31;100591.72;;;18.25;38.56
35435;BME280;21556;55.782;37.528;2023-04-10T10:16:36;100585.50;;;18.63;37.84
35435;BME280;21556;55.782;37.528;2023-04-10T10:21:38;100592.59;;;18.34;37.16
35435;BME280;21556;55.782;37.528;2023-04-10T10:24:09;100594.34;;;18.74;36.06
35435;BME280;21556;55.782;37.528;2023-04-10T10:26:38;100600.09;;;19.75;35.12
35435;BME280;21556;55.782;37.528;2023-04-10T10:29:06;100576.84;;;20.01;33.23
35435;BME280;21556;55.782;37.528;2023-04-10T10:31:39;100578.03;;;19.54;32.86
35435;BME280;21556;55.782;37.528;2023-04-10T10:34:05;100585.56;;;18.13;35.48
35435;BME280;21556;55.782;37.528;2023-04-10T10:36:35;100588.16;;;18.60;35.46
35435;BME280;21556;55.782;37.528;2023-04-10T10:42:29;100590.63;;;17.16;37.90
35435;BME280;21556;55.782;37.528;2023-04-10T10:45:11;100595.00;;;17.00;38.45
35435;BME280;21556;55.782;37.528;2023-04-10T10:47:44;100577.56;;;18.07;37.22
35435;BME280;21556;55.782;37.528;2023-04-10T10:50:14;100579.31;;;18.04;36.02
35435;BME280;21556;55.782;37.528;2023-04-10T10:58:01;100574.91;;;18.29;35.44
35435;BME280;21556;55.782;37.528;2023-04-10T11:05:58;100577.56;;;17.77;36.49
35435;BME280;21556;55.782;37.528;2023-04-10T11:08:47;100580.97;;;17.26;37.60
35435;BME280;21556;55.782;37.528;2023-04-10T11:11:22;100576.59;;;17.52;37.67
35435;BME280;21556;55.782;37.528;2023-04-10T11:16:15;100581.91;;;17.57;37.60
35435;BME280;21556;55.782;37.528;2023-04-10T11:21:17;100582.53;;;16.84;40.19
35435;BME280;21556;55.782;37.528;2023-04-10T11:26:39;100577.31;;;17.02;39.53
35435;BME280;21556;55.782;37.528;2023-04-10T11:31:44;100590.47;;;16.84;40.60
35435;BME280;21556;55.782;37.528;2023-04-10T11:34:11;100576.69;;;16.07;43.27
35435;BME280;21556;55.782;37.528;2023-04-10T11:36:39;100580.63;;;16.66;42.50
35435;BME280;21556;55.782;37.528;2023-04-10T11:39:10;100577.16;;;16.73;41.83
35435;BME280;21556;55.782;37.528;2023-04-10T11:41:47;100578.81;;;16.54;42.80
35435;BME280;21556;55.782;37.528;2023-04-10T11:46:43;100578.84;;;16.60;42.07
35435;BME280;21556;55.782;37.528;2023-04-10T11:49:21;100570.09;;;16.71;40.30
35435;BME280;21556;55.782;37.528;2023-04-10T11:51:49;100570.78;;;16.42;41.35
35435;BME280;21556;55.782;37.528;2023-04-10T11:54:19;100564.75;;;16.69;41.45
35435;BME280;21556;55.782;37.528;2023-04-10T11:57:04;100569.06;;;16.50;42.11
35435;BME280;21556;55.782;37.528;2023-04-10T11:59:32;100567.44;;;16.71;41.63
35435;BME280;21556;55.782;37.528;2023-04-10T12:02:12;100565.59;;;16.57;42.40
35435;BME280;21556;55.782;37.528;2023-04-10T12:04:43;100564.66;;;16.55;42.62
35435;BME280;21556;55.782;37.528;2023-04-10T12:07:12;100562.94;;;16.57;40.98
35435;BME280;21556;55.782;37.528;2023-04-10T12:09:41;100558.53;;;16.59;40.96
35435;BME280;21556;55.782;37.528;2023-04-10T12:12:09;100555.13;;;16.74;41.42
35435;BME280;21556;55.782;37.528;2023-04-10T12:14:40;100563.94;;;16.76;43.02
35435;BME280;21556;55.782;37.528;2023-04-10T12:17:10;100566.38;;;16.43;46.64
35435;BME280;21556;55.782;37.528;2023-04-10T12:19:39;100571.00;;;16.76;45.61
35435;BME280;21556;55.782;37.528;2023-04-10T12:22:05;100568.28;;;16.70;46.92
35435;BME280;21556;55.782;37.528;2023-04-10T12:24:52;100575.13;;;16.31;50.31
35435;BME280;21556;55.782;37.528;2023-04-10T12:27:24;100568.16;;;16.42;48.92
35435;BME280;21556;55.782;37.528;2023-04-10T12:29:53;100570.44;;;15.95;52.31
35435;BME280;21556;55.782;37.528;2023-04-10T12:32:22;100567.25;;;16.43;50.34
35435;BME280;21556;55.782;37.528;2023-04-10T12:34:55;100570.63;;;16.18;52.05
35435;BME280;21556;55.782;37.528;2023-04-10T12:37:23;100567.38;;;15.56;59.04
35435;BME280;21556;55.782;37.528;2023-04-10T12:39:51;100572.06;;;15.82;57.09
35435;BME280;21556;55.782;37.528;2023-04-10T12:42:23;100574.50;;;15.63;59.99
35435;BME280;21556;55.782;37.528;2023-04-10T12:45:05;100572.03;;;15.77;59.04
35435;BME280;21556;55.782;37.528;2023-04-10T12:47:50;100579.88;;;15.67;60.93
35435;BME280;21556;55.782;37.528;2023-04-10T12:50:28;100570.81;;;15.46;62.28
35435;BME280;21556;55.782;37.528;2023-04-10T12:53:11;100563.16;;;15.69;60.76
35435;BME280;21556;55.782;37.528;2023-04-10T12:56:08;100565.88;;;15.77;61.13
35435;BME280;21556;55.782;37.528;2023-04-10T12:59:09;100569.03;;;15.47;66.48
35435;BME280;21556;55.782;37.528;2023-04-10T13:01:41;100577.78;;;15.36;72.21
35435;BME280;21556;55.782;37.528;2023-04-10T13:04:11;100574.09;;;15.22;74.54
35435;BME280;21556;55.782;37.528;2023-04-10T13:06:43;100571.41;;;15.21;74.77
35435;BME280;21556;55.782;37.528;2023-04-10T13:09:23;100572.19;;;15.13;76.00
35435;BME280;21556;55.782;37.528;2023-04-10T13:11:50;100572.25;;;15.16;75.57
35435;BME280;21556;55.782;37.528;2023-04-10T13:14:19;100569.16;;;14.81;79.38
35435;BME280;21556;55.782;37.528;2023-04-10T13:16:46;100573.16;;;15.19;74.60
35435;BME280;21556;55.782;37.528;2023-04-10T13:19:13;100567.44;;;14.82;78.99
35435;BME280;21556;55.782;37.528;2023-04-10T13:21:42;100568.91;;;14.63;79.06
35435;BME280;21556;55.782;37.528;2023-04-10T13:24:11;100566.66;;;14.92;76.34
35435;BME280;21556;55.782;37.528;2023-04-10T13:26:53;100563.53;;;14.55;81.07
35435;BME280;21556;55.782;37.528;2023-04-10T13:29:31;100562.16;;;14.83;77.27
35435;BME280;21556;55.782;37.528;2023-04-10T13:32:02;100567.44;;;14.83;76.58
35435;BME280;21556;55.782;37.528;2023-04-10T13:35:00;100562.84;;;14.67;80.02
35435;BME280;21556;55.782;37.528;2023-04-10T13:37:40;100568.91;;;14.63;78.13
35435;BME280;21556;55.782;37.528;2023-04-10T13:40:10;100563.56;;;14.58;76.74
35435;BME280;21556;55.782;37.528;2023-04-10T13:42:36;100563.28;;;14.41;80.74
35435;BME280;21556;55.782;37.528;2023-04-10T13:45:06;100559.75;;;14.41;86.28
35435;BME280;21556;55.782;37.528;2023-04-10T13:47:32;100553.34;;;14.83;81.80
35435;BME280;21556;55.782;37.528;2023-04-10T13:50:00;100551.63;;;14.88;84.98
35435;BME280;21556;55.782;37.528;2023-04-10T13:52:31;100549.53;;;14.62;84.16
35435;BME280;21556;55.782;37.528;2023-04-10T13:54:57;100547.50;;;15.10;75.52
35435;BME280;21556;55.782;37.528;2023-04-10T13:57:23;100551.84;;;15.06;72.60
35435;BME280;21556;55.782;37.528;2023-04-10T13:59:50;100547.38;;;14.98;74.06
35435;BME280;21556;55.782;37.528;2023-04-10T14:02:16;100543.59;;;14.79;75.92